sensor_id;sensor_type;location;lat;lon;timestamp;P1;durP1;ratioP1;P2;durP2;ratioP2
51618;SDS011;38518;53.164;5.430;2023-06-24T00:00:08;16.05;;;13.88;;
51618;SDS011;38518;53.164;5.430;2023-06-24T00:02:36;14.52;;;13.13;;
51618;SDS011;38518;53.164;5.430;2023-06-24T00:05:03;15.57;;;13.95;;
51618;SDS011;38518;53.164;5.430;2023-06-24T00:07:30;15.77;;;14.18;;
51618;SDS011;38518;53.164;5.430;2023-06-24T00:09:56;15.80;;;13.13;;
51618;SDS011;38518;53.164;5.430;2023-06-24T00:12:21;15.00;;;13.55;;
51618;SDS011;38518;53.164;5.430;2023-06-24T00:14:47;17.58;;;15.27;;
51618;SDS011;38518;53.164;5.430;2023-06-24T00:17:13;15.80;;;14.20;;
51618;SDS011;38518;53.164;5.430;2023-06-24T00:19:41;17.13;;;15.43;;
51618;SDS011;38518;53.164;5.430;2023-06-24T00:22:09;17.20;;;15.60;;
51618;SDS011;38518;53.164;5.430;2023-06-24T00:24:34;17.40;;;15.57;;
51618;SDS011;38518;53.164;5.430;2023-06-24T00:27:00;16.88;;;15.25;;
51618;SDS011;38518;53.164;5.430;2023-06-24T00:29:26;17.58;;;15.88;;
51618;SDS011;38518;53.164;5.430;2023-06-24T00:31:51;18.50;;;16.70;;
51618;SDS011;38518;53.164;5.430;2023-06-24T00:34:17;18.27;;;16.15;;
51618;SDS011;38518;53.164;5.430;2023-06-24T00:36:45;15.75;;;14.05;;
51618;SDS011;38518;53.164;5.430;2023-06-24T00:39:12;18.27;;;16.48;;
51618;SDS011;38518;53.164;5.430;2023-06-24T00:41:38;16.20;;;14.60;;
51618;SDS011;38518;53.164;5.430;2023-06-24T00:44:03;17.77;;;16.05;;
51618;SDS011;38518;53.164;5.430;2023-06-24T00:46:29;17.55;;;15.85;;
51618;SDS011;38518;53.164;5.430;2023-06-24T00:48:58;18.23;;;16.33;;
51618;SDS011;38518;53.164;5.430;2023-06-24T00:51:25;19.00;;;17.02;;
51618;SDS011;38518;53.164;5.430;2023-06-24T00:53:54;17.25;;;15.63;;
51618;SDS011;38518;53.164;5.430;2023-06-24T00:56:30;18.17;;;16.45;;
51618;SDS011;38518;53.164;5.430;2023-06-24T00:58:59;17.20;;;15.40;;
51618;SDS011;38518;53.164;5.430;2023-06-24T01:01:33;17.95;;;15.98;;
51618;SDS011;38518;53.164;5.430;2023-06-24T01:04:01;20.65;;;16.98;;
51618;SDS011;38518;53.164;5.430;2023-06-24T01:06:28;17.48;;;15.68;;
51618;SDS011;38518;53.164;5.430;2023-06-24T01:08:58;19.25;;;17.30;;
51618;SDS011;38518;53.164;5.430;2023-06-24T01:11:28;18.23;;;16.45;;
51618;SDS011;38518;53.164;5.430;2023-06-24T01:13:55;16.15;;;14.65;;
51618;SDS011;38518;53.164;5.430;2023-06-24T01:16:37;17.50;;;15.80;;
51618;SDS011;38518;53.164;5.430;2023-06-24T01:28:13;17.80;;;16.02;;
51618;SDS011;38518;53.164;5.430;2023-06-24T01:33:46;18.55;;;16.75;;
51618;SDS011;38518;53.164;5.430;2023-06-24T01:36:19;18.40;;;16.60;;
51618;SDS011;38518;53.164;5.430;2023-06-24T01:38:58;18.55;;;16.60;;
51618;SDS011;38518;53.164;5.430;2023-06-24T01:41:31;18.80;;;15.98;;
51618;SDS011;38518;53.164;5.430;2023-06-24T01:44:01;17.70;;;16.08;;
51618;SDS011;38518;53.164;5.430;2023-06-24T01:46:29;19.00;;;16.67;;
51618;SDS011;38518;53.164;5.430;2023-06-24T01:48:55;17.60;;;15.80;;
51618;SDS011;38518;53.164;5.430;2023-06-24T01:51:26;19.35;;;17.48;;
51618;SDS011;38518;53.164;5.430;2023-06-24T01:53:54;17.05;;;15.25;;
51618;SDS011;38518;53.164;5.430;2023-06-24T01:56:25;18.85;;;16.85;;
51618;SDS011;38518;53.164;5.430;2023-06-24T01:58:53;17.30;;;15.68;;
51618;SDS011;38518;53.164;5.430;2023-06-24T02:01:24;19.15;;;17.13;;
51618;SDS011;38518;53.164;5.430;2023-06-24T02:03:50;19.25;;;17.15;;
51618;SDS011;38518;53.164;5.430;2023-06-24T02:06:18;18.70;;;16.40;;
51618;SDS011;38518;53.164;5.430;2023-06-24T02:08:45;19.02;;;16.75;;
51618;SDS011;38518;53.164;5.430;2023-06-24T02:11:15;18.50;;;16.63;;
51618;SDS011;38518;53.164;5.430;2023-06-24T02:13:42;18.88;;;16.95;;
51618;SDS011;38518;53.164;5.430;2023-06-24T02:16:08;19.92;;;18.00;;
51618;SDS011;38518;53.164;5.430;2023-06-24T02:18:37;19.55;;;16.70;;
51618;SDS011;38518;53.164;5.430;2023-06-24T02:21:07;20.20;;;17.38;;
51618;SDS011;38518;53.164;5.430;2023-06-24T02:23:34;19.70;;;17.88;;
51618;SDS011;38518;53.164;5.430;2023-06-24T02:26:02;19.75;;;17.50;;
51618;SDS011;38518;53.164;5.430;2023-06-24T02:28:31;19.77;;;17.60;;
51618;SDS011;38518;53.164;5.430;2023-06-24T02:30:58;19.90;;;18.00;;
51618;SDS011;38518;53.164;5.430;2023-06-24T02:33:25;19.42;;;17.38;;
51618;SDS011;38518;53.164;5.430;2023-06-24T02:35:51;19.30;;;17.23;;
51618;SDS011;38518;53.164;5.430;2023-06-24T02:38:17;20.27;;;18.17;;
51618;SDS011;38518;53.164;5.430;2023-06-24T02:40:44;21.75;;;17.50;;
51618;SDS011;38518;53.164;5.430;2023-06-24T02:43:11;19.27;;;17.30;;
51618;SDS011;38518;53.164;5.430;2023-06-24T02:45:37;19.67;;;17.52;;
51618;SDS011;38518;53.164;5.430;2023-06-24T02:48:04;20.05;;;17.95;;
51618;SDS011;38518;53.164;5.430;2023-06-24T02:50:31;20.27;;;18.08;;
51618;SDS011;38518;53.164;5.430;2023-06-24T02:52:58;22.23;;;18.40;;
51618;SDS011;38518;53.164;5.430;2023-06-24T02:55:24;20.63;;;18.27;;
51618;SDS011;38518;53.164;5.430;2023-06-24T02:57:51;21.08;;;18.88;;
51618;SDS011;38518;53.164;5.430;2023-06-24T03:00:18;20.20;;;16.85;;
51618;SDS011;38518;53.164;5.430;2023-06-24T03:02:45;23.67;;;18.10;;
51618;SDS011;38518;53.164;5.430;2023-06-24T03:05:12;21.33;;;19.05;;
51618;SDS011;38518;53.164;5.430;2023-06-24T03:07:38;20.70;;;18.48;;
51618;SDS011;38518;53.164;5.430;2023-06-24T03:10:05;20.60;;;17.70;;
51618;SDS011;38518;53.164;5.430;2023-06-24T03:12:31;19.67;;;17.63;;
51618;SDS011;38518;53.164;5.430;2023-06-24T03:14:57;19.88;;;17.98;;
51618;SDS011;38518;53.164;5.430;2023-06-24T03:17:23;19.55;;;17.60;;
51618;SDS011;38518;53.164;5.430;2023-06-24T03:19:50;19.92;;;18.02;;
51618;SDS011;38518;53.164;5.430;2023-06-24T03:22:15;20.73;;;18.65;;
51618;SDS011;38518;53.164;5.430;2023-06-24T03:24:42;18.98;;;17.17;;
51618;SDS011;38518;53.164;5.430;2023-06-24T03:27:08;20.60;;;18.50;;
51618;SDS011;38518;53.164;5.430;2023-06-24T03:29:34;20.52;;;18.33;;
51618;SDS011;38518;53.164;5.430;2023-06-24T03:31:59;20.83;;;18.58;;
51618;SDS011;38518;53.164;5.430;2023-06-24T03:34:25;20.77;;;17.75;;
51618;SDS011;38518;53.164;5.430;2023-06-24T03:36:55;19.65;;;17.77;;
51618;SDS011;38518;53.164;5.430;2023-06-24T03:39:21;20.17;;;18.20;;
51618;SDS011;38518;53.164;5.430;2023-06-24T03:41:46;20.55;;;18.35;;
51618;SDS011;38518;53.164;5.430;2023-06-24T03:44:12;22.13;;;17.95;;
51618;SDS011;38518;53.164;5.430;2023-06-24T03:46:38;22.33;;;18.77;;
51618;SDS011;38518;53.164;5.430;2023-06-24T03:49:04;20.02;;;18.02;;
51618;SDS011;38518;53.164;5.430;2023-06-24T03:51:30;19.60;;;17.52;;
51618;SDS011;38518;53.164;5.430;2023-06-24T03:53:56;20.45;;;18.45;;
51618;SDS011;38518;53.164;5.430;2023-06-24T03:56:22;21.08;;;18.98;;
51618;SDS011;38518;53.164;5.430;2023-06-24T03:58:47;19.45;;;17.45;;
51618;SDS011;38518;53.164;5.430;2023-06-24T04:01:13;19.20;;;17.33;;
51618;SDS011;38518;53.164;5.430;2023-06-24T04:03:39;19.13;;;17.20;;
51618;SDS011;38518;53.164;5.430;2023-06-24T04:06:05;18.75;;;16.85;;
51618;SDS011;38518;53.164;5.430;2023-06-24T04:08:30;20.58;;;18.48;;
51618;SDS011;38518;53.164;5.430;2023-06-24T04:10:56;19.48;;;17.58;;
51618;SDS011;38518;53.164;5.430;2023-06-24T04:13:28;20.35;;;17.92;;
51618;SDS011;38518;53.164;5.430;2023-06-24T04:15:54;19.77;;;17.73;;
51618;SDS011;38518;53.164;5.430;2023-06-24T04:18:20;23.88;;;19.13;;
51618;SDS011;38518;53.164;5.430;2023-06-24T04:20:46;20.42;;;18.25;;
51618;SDS011;38518;53.164;5.430;2023-06-24T04:23:12;20.83;;;18.83;;
51618;SDS011;38518;53.164;5.430;2023-06-24T04:25:39;20.15;;;18.15;;
51618;SDS011;38518;53.164;5.430;2023-06-24T04:28:05;19.25;;;17.45;;
51618;SDS011;38518;53.164;5.430;2023-06-24T04:30:34;19.83;;;17.83;;
51618;SDS011;38518;53.164;5.430;2023-06-24T04:33:00;20.20;;;18.13;;
51618;SDS011;38518;53.164;5.430;2023-06-24T04:35:27;19.65;;;17.67;;
51618;SDS011;38518;53.164;5.430;2023-06-24T04:37:53;18.92;;;16.95;;
51618;SDS011;38518;53.164;5.430;2023-06-24T04:40:18;19.75;;;17.65;;
51618;SDS011;38518;53.164;5.430;2023-06-24T04:42:45;19.70;;;17.58;;
51618;SDS011;38518;53.164;5.430;2023-06-24T04:45:11;19.27;;;17.35;;
51618;SDS011;38518;53.164;5.430;2023-06-24T04:47:36;19.40;;;17.13;;
51618;SDS011;38518;53.164;5.430;2023-06-24T04:50:02;19.67;;;17.60;;
51618;SDS011;38518;53.164;5.430;2023-06-24T04:52:28;19.95;;;17.67;;
51618;SDS011;38518;53.164;5.430;2023-06-24T04:54:54;19.95;;;17.67;;
51618;SDS011;38518;53.164;5.430;2023-06-24T04:57:29;19.42;;;17.35;;
51618;SDS011;38518;53.164;5.430;2023-06-24T04:59:57;20.00;;;17.65;;
51618;SDS011;38518;53.164;5.430;2023-06-24T05:02:23;19.60;;;17.58;;
51618;SDS011;38518;53.164;5.430;2023-06-24T05:04:49;18.77;;;16.77;;
51618;SDS011;38518;53.164;5.430;2023-06-24T05:07:16;18.95;;;17.13;;
51618;SDS011;38518;53.164;5.430;2023-06-24T05:09:42;18.27;;;16.30;;
51618;SDS011;38518;53.164;5.430;2023-06-24T05:12:08;20.33;;;18.33;;
51618;SDS011;38518;53.164;5.430;2023-06-24T05:14:35;18.20;;;16.38;;
51618;SDS011;38518;53.164;5.430;2023-06-24T05:17:01;18.33;;;16.50;;
51618;SDS011;38518;53.164;5.430;2023-06-24T05:19:30;18.92;;;16.98;;
51618;SDS011;38518;53.164;5.430;2023-06-24T05:21:56;20.90;;;16.95;;
51618;SDS011;38518;53.164;5.430;2023-06-24T05:24:22;19.73;;;17.63;;
51618;SDS011;38518;53.164;5.430;2023-06-24T05:26:48;17.67;;;15.90;;
51618;SDS011;38518;53.164;5.430;2023-06-24T05:29:15;18.38;;;16.42;;
51618;SDS011;38518;53.164;5.430;2023-06-24T05:31:41;18.20;;;15.98;;
51618;SDS011;38518;53.164;5.430;2023-06-24T05:34:07;19.25;;;15.65;;
51618;SDS011;38518;53.164;5.430;2023-06-24T05:36:33;16.65;;;14.95;;
51618;SDS011;38518;53.164;5.430;2023-06-24T05:38:59;16.52;;;14.82;;
51618;SDS011;38518;53.164;5.430;2023-06-24T05:41:25;17.52;;;15.38;;
51618;SDS011;38518;53.164;5.430;2023-06-24T05:44:01;16.73;;;14.90;;
51618;SDS011;38518;53.164;5.430;2023-06-24T05:46:31;17.95;;;14.63;;
51618;SDS011;38518;53.164;5.430;2023-06-24T05:48:57;16.80;;;14.73;;
51618;SDS011;38518;53.164;5.430;2023-06-24T05:51:22;15.82;;;14.27;;
51618;SDS011;38518;53.164;5.430;2023-06-24T05:53:48;18.88;;;15.32;;
51618;SDS011;38518;53.164;5.430;2023-06-24T05:56:14;15.93;;;14.23;;
51618;SDS011;38518;53.164;5.430;2023-06-24T05:58:39;15.27;;;13.77;;
51618;SDS011;38518;53.164;5.430;2023-06-24T06:01:06;15.90;;;14.02;;
51618;SDS011;38518;53.164;5.430;2023-06-24T06:03:32;14.88;;;13.32;;
51618;SDS011;38518;53.164;5.430;2023-06-24T06:05:58;16.42;;;14.07;;
51618;SDS011;38518;53.164;5.430;2023-06-24T06:08:24;15.57;;;14.02;;
51618;SDS011;38518;53.164;5.430;2023-06-24T06:10:49;14.98;;;13.35;;
51618;SDS011;38518;53.164;5.430;2023-06-24T06:13:15;14.32;;;12.82;;
51618;SDS011;38518;53.164;5.430;2023-06-24T06:15:41;18.17;;;13.57;;
51618;SDS011;38518;53.164;5.430;2023-06-24T06:18:06;14.30;;;12.85;;
51618;SDS011;38518;53.164;5.430;2023-06-24T06:20:32;13.82;;;12.43;;
51618;SDS011;38518;53.164;5.430;2023-06-24T06:22:58;14.07;;;12.60;;
51618;SDS011;38518;53.164;5.430;2023-06-24T06:25:23;12.95;;;11.55;;
51618;SDS011;38518;53.164;5.430;2023-06-24T06:27:49;12.50;;;11.32;;
51618;SDS011;38518;53.164;5.430;2023-06-24T06:30:15;11.75;;;10.27;;
51618;SDS011;38518;53.164;5.430;2023-06-24T06:32:41;12.80;;;10.60;;
51618;SDS011;38518;53.164;5.430;2023-06-24T06:35:06;11.13;;;9.35;;
51618;SDS011;38518;53.164;5.430;2023-06-24T06:37:33;9.82;;;8.82;;
51618;SDS011;38518;53.164;5.430;2023-06-24T06:39:59;9.65;;;8.73;;
51618;SDS011;38518;53.164;5.430;2023-06-24T06:42:24;9.70;;;8.65;;
51618;SDS011;38518;53.164;5.430;2023-06-24T06:44:50;9.80;;;8.32;;
51618;SDS011;38518;53.164;5.430;2023-06-24T06:47:16;9.63;;;7.95;;
51618;SDS011;38518;53.164;5.430;2023-06-24T06:49:42;9.65;;;7.78;;
51618;SDS011;38518;53.164;5.430;2023-06-24T06:52:08;8.55;;;7.60;;
51618;SDS011;38518;53.164;5.430;2023-06-24T06:54:33;10.48;;;7.55;;
51618;SDS011;38518;53.164;5.430;2023-06-24T06:57:02;8.45;;;7.20;;
51618;SDS011;38518;53.164;5.430;2023-06-24T06:59:30;7.13;;;6.15;;
51618;SDS011;38518;53.164;5.430;2023-06-24T07:01:56;7.55;;;6.50;;
51618;SDS011;38518;53.164;5.430;2023-06-24T07:04:22;10.30;;;6.95;;
51618;SDS011;38518;53.164;5.430;2023-06-24T07:06:48;7.15;;;6.45;;
51618;SDS011;38518;53.164;5.430;2023-06-24T07:09:13;7.85;;;6.53;;
51618;SDS011;38518;53.164;5.430;2023-06-24T07:11:40;9.55;;;6.28;;
51618;SDS011;38518;53.164;5.430;2023-06-24T07:14:06;8.65;;;6.80;;
51618;SDS011;38518;53.164;5.430;2023-06-24T07:16:32;8.35;;;6.35;;
51618;SDS011;38518;53.164;5.430;2023-06-24T07:18:58;8.00;;;5.80;;
51618;SDS011;38518;53.164;5.430;2023-06-24T07:21:24;7.95;;;6.10;;
51618;SDS011;38518;53.164;5.430;2023-06-24T07:23:49;8.85;;;6.28;;
51618;SDS011;38518;53.164;5.430;2023-06-24T07:26:15;7.68;;;6.13;;
51618;SDS011;38518;53.164;5.430;2023-06-24T07:29:13;8.63;;;6.10;;
51618;SDS011;38518;53.164;5.430;2023-06-24T07:31:39;6.50;;;5.82;;
51618;SDS011;38518;53.164;5.430;2023-06-24T07:34:07;9.52;;;6.38;;
51618;SDS011;38518;53.164;5.430;2023-06-24T07:36:39;8.30;;;6.05;;
51618;SDS011;38518;53.164;5.430;2023-06-24T07:39:05;7.13;;;6.07;;
51618;SDS011;38518;53.164;5.430;2023-06-24T07:41:31;8.27;;;5.70;;
51618;SDS011;38518;53.164;5.430;2023-06-24T07:43:57;8.60;;;6.18;;
51618;SDS011;38518;53.164;5.430;2023-06-24T07:46:24;8.63;;;5.57;;
51618;SDS011;38518;53.164;5.430;2023-06-24T07:48:52;8.02;;;5.80;;
51618;SDS011;38518;53.164;5.430;2023-06-24T07:51:18;8.68;;;6.03;;
51618;SDS011;38518;53.164;5.430;2023-06-24T07:53:44;7.00;;;5.00;;
51618;SDS011;38518;53.164;5.430;2023-06-24T07:56:10;8.85;;;6.13;;
51618;SDS011;38518;53.164;5.430;2023-06-24T07:58:35;7.93;;;5.60;;
51618;SDS011;38518;53.164;5.430;2023-06-24T08:01:03;8.40;;;5.50;;
51618;SDS011;38518;53.164;5.430;2023-06-24T08:03:29;8.57;;;5.55;;
51618;SDS011;38518;53.164;5.430;2023-06-24T08:05:55;7.03;;;6.05;;
51618;SDS011;38518;53.164;5.430;2023-06-24T08:08:21;7.10;;;5.03;;
51618;SDS011;38518;53.164;5.430;2023-06-24T08:10:47;9.65;;;6.25;;
51618;SDS011;38518;53.164;5.430;2023-06-24T08:13:13;11.75;;;6.60;;
51618;SDS011;38518;53.164;5.430;2023-06-24T08:15:39;12.52;;;7.07;;
51618;SDS011;38518;53.164;5.430;2023-06-24T08:18:05;8.05;;;6.38;;
51618;SDS011;38518;53.164;5.430;2023-06-24T08:20:30;9.57;;;7.07;;
51618;SDS011;38518;53.164;5.430;2023-06-24T08:22:56;7.68;;;6.55;;
51618;SDS011;38518;53.164;5.430;2023-06-24T08:25:24;9.10;;;7.00;;
51618;SDS011;38518;53.164;5.430;2023-06-24T08:27:53;10.88;;;7.32;;
51618;SDS011;38518;53.164;5.430;2023-06-24T08:30:19;9.75;;;7.40;;
51618;SDS011;38518;53.164;5.430;2023-06-24T08:32:45;11.77;;;7.45;;
51618;SDS011;38518;53.164;5.430;2023-06-24T08:35:10;12.00;;;8.45;;
51618;SDS011;38518;53.164;5.430;2023-06-24T08:37:36;11.52;;;7.80;;
51618;SDS011;38518;53.164;5.430;2023-06-24T08:40:03;12.90;;;7.70;;
51618;SDS011;38518;53.164;5.430;2023-06-24T08:45:16;10.00;;;7.72;;
51618;SDS011;38518;53.164;5.430;2023-06-24T08:47:53;8.68;;;7.68;;
51618;SDS011;38518;53.164;5.430;2023-06-24T08:50:39;10.68;;;7.43;;
51618;SDS011;38518;53.164;5.430;2023-06-24T08:53:08;8.75;;;6.85;;
51618;SDS011;38518;53.164;5.430;2023-06-24T08:55:43;10.60;;;6.93;;
51618;SDS011;38518;53.164;5.430;2023-06-24T08:58:10;9.35;;;6.35;;
51618;SDS011;38518;53.164;5.430;2023-06-24T09:00:36;8.63;;;4.95;;
51618;SDS011;38518;53.164;5.430;2023-06-24T09:03:02;7.03;;;5.10;;
51618;SDS011;38518;53.164;5.430;2023-06-24T09:05:28;9.75;;;5.50;;
51618;SDS011;38518;53.164;5.430;2023-06-24T09:07:53;8.98;;;5.40;;
51618;SDS011;38518;53.164;5.430;2023-06-24T09:10:37;8.07;;;4.75;;
51618;SDS011;38518;53.164;5.430;2023-06-24T09:13:04;8.27;;;5.45;;
51618;SDS011;38518;53.164;5.430;2023-06-24T09:15:31;8.40;;;5.30;;
51618;SDS011;38518;53.164;5.430;2023-06-24T09:17:58;9.65;;;5.82;;
51618;SDS011;38518;53.164;5.430;2023-06-24T09:20:27;10.10;;;5.15;;
51618;SDS011;38518;53.164;5.430;2023-06-24T09:22:57;8.18;;;5.63;;
51618;SDS011;38518;53.164;5.430;2023-06-24T09:25:35;8.90;;;5.38;;
51618;SDS011;38518;53.164;5.430;2023-06-24T09:31:25;8.02;;;5.07;;
51618;SDS011;38518;53.164;5.430;2023-06-24T09:33:51;10.05;;;5.53;;
51618;SDS011;38518;53.164;5.430;2023-06-24T09:36:16;11.10;;;5.57;;
51618;SDS011;38518;53.164;5.430;2023-06-24T09:38:42;9.80;;;5.75;;
51618;SDS011;38518;53.164;5.430;2023-06-24T09:41:13;10.63;;;5.88;;
51618;SDS011;38518;53.164;5.430;2023-06-24T09:43:41;8.98;;;5.10;;
51618;SDS011;38518;53.164;5.430;2023-06-24T09:46:10;9.85;;;5.40;;
51618;SDS011;38518;53.164;5.430;2023-06-24T09:48:36;8.77;;;5.40;;
51618;SDS011;38518;53.164;5.430;2023-06-24T09:51:03;9.35;;;5.95;;
51618;SDS011;38518;53.164;5.430;2023-06-24T09:53:33;8.38;;;5.15;;
51618;SDS011;38518;53.164;5.430;2023-06-24T09:56:00;11.23;;;6.30;;
51618;SDS011;38518;53.164;5.430;2023-06-24T09:58:31;7.40;;;5.88;;
51618;SDS011;38518;53.164;5.430;2023-06-24T10:01:01;9.32;;;5.88;;
51618;SDS011;38518;53.164;5.430;2023-06-24T10:03:29;9.43;;;5.78;;
51618;SDS011;38518;53.164;5.430;2023-06-24T10:06:00;9.07;;;5.32;;
51618;SDS011;38518;53.164;5.430;2023-06-24T10:08:27;9.40;;;5.90;;
51618;SDS011;38518;53.164;5.430;2023-06-24T10:10:55;10.45;;;5.95;;
51618;SDS011;38518;53.164;5.430;2023-06-24T10:13:22;7.53;;;5.18;;
51618;SDS011;38518;53.164;5.430;2023-06-24T10:15:48;7.78;;;5.80;;
51618;SDS011;38518;53.164;5.430;2023-06-24T10:18:33;10.63;;;5.78;;
51618;SDS011;38518;53.164;5.430;2023-06-24T10:21:00;8.15;;;5.10;;
51618;SDS011;38518;53.164;5.430;2023-06-24T10:23:30;10.82;;;6.00;;
51618;SDS011;38518;53.164;5.430;2023-06-24T10:25:57;9.23;;;5.47;;
51618;SDS011;38518;53.164;5.430;2023-06-24T10:28:23;9.07;;;5.50;;
51618;SDS011;38518;53.164;5.430;2023-06-24T10:30:55;8.23;;;5.50;;
51618;SDS011;38518;53.164;5.430;2023-06-24T10:33:24;7.90;;;5.60;;
51618;SDS011;38518;53.164;5.430;2023-06-24T10:35:50;8.02;;;5.30;;
51618;SDS011;38518;53.164;5.430;2023-06-24T10:38:17;10.48;;;5.70;;
51618;SDS011;38518;53.164;5.430;2023-06-24T10:40:43;7.85;;;5.30;;
51618;SDS011;38518;53.164;5.430;2023-06-24T10:45:55;7.05;;;4.95;;
51618;SDS011;38518;53.164;5.430;2023-06-24T10:48:22;6.95;;;5.50;;
51618;SDS011;38518;53.164;5.430;2023-06-24T10:50:48;8.25;;;4.90;;
51618;SDS011;38518;53.164;5.430;2023-06-24T10:53:17;8.65;;;5.50;;
51618;SDS011;38518;53.164;5.430;2023-06-24T10:55:45;8.55;;;4.90;;
51618;SDS011;38518;53.164;5.430;2023-06-24T10:58:12;8.48;;;5.60;;
51618;SDS011;38518;53.164;5.430;2023-06-24T11:00:40;8.73;;;4.82;;
51618;SDS011;38518;53.164;5.430;2023-06-24T11:03:10;8.35;;;5.38;;
51618;SDS011;38518;53.164;5.430;2023-06-24T11:05:38;8.88;;;5.35;;
51618;SDS011;38518;53.164;5.430;2023-06-24T11:08:07;8.50;;;5.40;;
51618;SDS011;38518;53.164;5.430;2023-06-24T11:10:41;8.75;;;5.18;;
51618;SDS011;38518;53.164;5.430;2023-06-24T11:13:14;7.15;;;5.07;;
51618;SDS011;38518;53.164;5.430;2023-06-24T11:15:40;9.10;;;6.00;;
51618;SDS011;38518;53.164;5.430;2023-06-24T11:18:09;10.00;;;5.50;;
51618;SDS011;38518;53.164;5.430;2023-06-24T11:20:36;8.27;;;5.50;;
51618;SDS011;38518;53.164;5.430;2023-06-24T11:23:06;7.55;;;5.03;;
51618;SDS011;38518;53.164;5.430;2023-06-24T11:25:37;7.65;;;5.75;;
51618;SDS011;38518;53.164;5.430;2023-06-24T11:28:04;6.90;;;5.68;;
51618;SDS011;38518;53.164;5.430;2023-06-24T11:30:33;7.70;;;5.68;;
51618;SDS011;38518;53.164;5.430;2023-06-24T11:32:59;8.45;;;5.85;;
51618;SDS011;38518;53.164;5.430;2023-06-24T11:35:28;10.95;;;6.28;;
51618;SDS011;38518;53.164;5.430;2023-06-24T11:38:00;10.38;;;7.38;;
51618;SDS011;38518;53.164;5.430;2023-06-24T11:40:30;10.70;;;7.03;;
51618;SDS011;38518;53.164;5.430;2023-06-24T11:42:57;11.20;;;7.68;;
51618;SDS011;38518;53.164;5.430;2023-06-24T11:45:25;10.35;;;7.10;;
51618;SDS011;38518;53.164;5.430;2023-06-24T11:47:51;12.35;;;7.40;;
51618;SDS011;38518;53.164;5.430;2023-06-24T11:50:20;11.38;;;6.63;;
51618;SDS011;38518;53.164;5.430;2023-06-24T11:52:52;11.60;;;7.30;;
51618;SDS011;38518;53.164;5.430;2023-06-24T11:55:22;9.77;;;6.75;;
51618;SDS011;38518;53.164;5.430;2023-06-24T12:03:03;11.55;;;6.95;;
51618;SDS011;38518;53.164;5.430;2023-06-24T12:05:34;9.35;;;6.95;;
51618;SDS011;38518;53.164;5.430;2023-06-24T12:08:02;10.07;;;6.68;;
51618;SDS011;38518;53.164;5.430;2023-06-24T12:10:30;11.15;;;7.57;;
51618;SDS011;38518;53.164;5.430;2023-06-24T12:12:59;11.50;;;6.85;;
51618;SDS011;38518;53.164;5.430;2023-06-24T12:15:26;11.18;;;7.78;;
51618;SDS011;38518;53.164;5.430;2023-06-24T12:17:52;13.40;;;7.28;;
51618;SDS011;38518;53.164;5.430;2023-06-24T12:20:18;10.45;;;7.38;;
51618;SDS011;38518;53.164;5.430;2023-06-24T12:22:45;11.18;;;7.25;;
51618;SDS011;38518;53.164;5.430;2023-06-24T12:25:11;10.52;;;7.63;;
51618;SDS011;38518;53.164;5.430;2023-06-24T12:27:37;9.55;;;7.07;;
51618;SDS011;38518;53.164;5.430;2023-06-24T12:30:05;11.95;;;6.90;;
51618;SDS011;38518;53.164;5.430;2023-06-24T12:32:31;9.43;;;6.85;;
51618;SDS011;38518;53.164;5.430;2023-06-24T12:34:57;13.45;;;7.05;;
51618;SDS011;38518;53.164;5.430;2023-06-24T12:37:23;10.77;;;6.55;;
51618;SDS011;38518;53.164;5.430;2023-06-24T12:39:49;8.32;;;6.10;;
51618;SDS011;38518;53.164;5.430;2023-06-24T12:42:17;8.82;;;6.15;;
51618;SDS011;38518;53.164;5.430;2023-06-24T12:44:43;7.35;;;5.50;;
51618;SDS011;38518;53.164;5.430;2023-06-24T12:47:09;8.73;;;6.22;;
51618;SDS011;38518;53.164;5.430;2023-06-24T12:49:34;9.75;;;6.07;;
51618;SDS011;38518;53.164;5.430;2023-06-24T12:52:01;11.60;;;6.13;;
51618;SDS011;38518;53.164;5.430;2023-06-24T12:54:26;10.18;;;6.47;;
51618;SDS011;38518;53.164;5.430;2023-06-24T12:56:52;7.68;;;6.65;;
51618;SDS011;38518;53.164;5.430;2023-06-24T12:59:18;12.02;;;7.25;;
51618;SDS011;38518;53.164;5.430;2023-06-24T13:01:44;10.30;;;6.63;;
51618;SDS011;38518;53.164;5.430;2023-06-24T13:04:10;9.82;;;6.60;;
51618;SDS011;38518;53.164;5.430;2023-06-24T13:06:36;10.13;;;6.15;;
51618;SDS011;38518;53.164;5.430;2023-06-24T13:09:02;10.32;;;6.60;;
51618;SDS011;38518;53.164;5.430;2023-06-24T13:11:28;9.43;;;6.82;;
51618;SDS011;38518;53.164;5.430;2023-06-24T13:13:54;8.07;;;6.13;;
51618;SDS011;38518;53.164;5.430;2023-06-24T13:16:20;9.38;;;6.40;;
51618;SDS011;38518;53.164;5.430;2023-06-24T13:18:46;7.25;;;6.22;;
51618;SDS011;38518;53.164;5.430;2023-06-24T13:21:12;8.63;;;6.40;;
51618;SDS011;38518;53.164;5.430;2023-06-24T13:23:38;10.25;;;6.82;;
51618;SDS011;38518;53.164;5.430;2023-06-24T13:26:05;9.23;;;6.63;;
51618;SDS011;38518;53.164;5.430;2023-06-24T13:28:31;8.52;;;6.43;;
51618;SDS011;38518;53.164;5.430;2023-06-24T13:30:57;6.20;;;5.47;;
51618;SDS011;38518;53.164;5.430;2023-06-24T13:33:23;7.50;;;4.93;;
51618;SDS011;38518;53.164;5.430;2023-06-24T13:35:49;5.90;;;4.28;;
51618;SDS011;38518;53.164;5.430;2023-06-24T13:38:16;6.05;;;4.88;;
51618;SDS011;38518;53.164;5.430;2023-06-24T13:40:42;5.30;;;4.80;;
51618;SDS011;38518;53.164;5.430;2023-06-24T13:43:08;7.30;;;5.25;;
51618;SDS011;38518;53.164;5.430;2023-06-24T13:45:33;8.82;;;5.43;;
51618;SDS011;38518;53.164;5.430;2023-06-24T13:47:59;6.70;;;5.65;;
51618;SDS011;38518;53.164;5.430;2023-06-24T13:50:25;6.43;;;5.20;;
51618;SDS011;38518;53.164;5.430;2023-06-24T13:52:50;6.63;;;5.03;;
51618;SDS011;38518;53.164;5.430;2023-06-24T13:55:16;7.18;;;6.00;;
51618;SDS011;38518;53.164;5.430;2023-06-24T13:57:42;8.63;;;5.05;;
51618;SDS011;38518;53.164;5.430;2023-06-24T14:00:07;7.45;;;5.13;;
51618;SDS011;38518;53.164;5.430;2023-06-24T14:02:34;7.53;;;5.60;;
51618;SDS011;38518;53.164;5.430;2023-06-24T14:05:00;6.30;;;5.22;;
51618;SDS011;38518;53.164;5.430;2023-06-24T14:07:25;8.05;;;4.32;;
51618;SDS011;38518;53.164;5.430;2023-06-24T14:09:51;5.13;;;4.07;;
51618;SDS011;38518;53.164;5.430;2023-06-24T14:12:17;5.50;;;4.03;;
51618;SDS011;38518;53.164;5.430;2023-06-24T14:14:43;5.38;;;3.78;;
51618;SDS011;38518;53.164;5.430;2023-06-24T14:17:09;6.10;;;3.92;;
51618;SDS011;38518;53.164;5.430;2023-06-24T14:19:36;6.68;;;4.05;;
51618;SDS011;38518;53.164;5.430;2023-06-24T14:22:03;5.57;;;4.07;;
51618;SDS011;38518;53.164;5.430;2023-06-24T14:24:29;4.80;;;3.50;;
51618;SDS011;38518;53.164;5.430;2023-06-24T14:26:55;4.47;;;3.33;;
51618;SDS011;38518;53.164;5.430;2023-06-24T14:29:20;4.25;;;2.92;;
51618;SDS011;38518;53.164;5.430;2023-06-24T14:31:46;5.65;;;3.25;;
51618;SDS011;38518;53.164;5.430;2023-06-24T14:34:12;4.60;;;3.15;;
51618;SDS011;38518;53.164;5.430;2023-06-24T14:36:38;6.40;;;2.97;;
51618;SDS011;38518;53.164;5.430;2023-06-24T14:39:03;3.10;;;2.80;;
51618;SDS011;38518;53.164;5.430;2023-06-24T14:41:29;4.00;;;2.90;;
51618;SDS011;38518;53.164;5.430;2023-06-24T14:43:55;3.17;;;2.65;;
51618;SDS011;38518;53.164;5.430;2023-06-24T14:46:21;3.53;;;3.03;;
51618;SDS011;38518;53.164;5.430;2023-06-24T14:48:46;4.70;;;2.88;;
51618;SDS011;38518;53.164;5.430;2023-06-24T14:51:12;4.50;;;3.13;;
51618;SDS011;38518;53.164;5.430;2023-06-24T14:53:38;4.10;;;3.13;;
51618;SDS011;38518;53.164;5.430;2023-06-24T14:56:05;5.25;;;3.10;;
51618;SDS011;38518;53.164;5.430;2023-06-24T14:58:31;6.18;;;3.35;;